Terminal Aerodrome Forecast
Issued by NWS Detroit/Pontiac, MI

Home | Current Version | Previous Version | Text Only | Print | Product List | Glossary On
Versions: 1 2 3 4 5 6 7 8 9 10 11 12 13 14 15 16 17 18 19 20 21 22
417
FTUS43 KDTX 111132
TAFFNT
TAF
KFNT 111132Z 1112/1212 30013KT P6SM BKN045
     FM120100 25007KT P6SM SCT045
     FM120800 22010KT P6SM OVC200=

USA.gov is the U.S. government's official web portal to all federal, state and local government web resources and services.